31VA weather

Public forecast

Using degrees Fahrenheit for public forecast. Weather courtesy of forecast.io.

Closest aviation weather report (METAR) to Aberdeen Field

Closest report is Felker Army Air Field, 6.6 nm (12.2 km) N. Retrieved 2020/08/14 16:56 UTC (8 minutes ago):

KFAF 141656Z 00000KT 10SM BKN015 BKN026 29/26 A2991 RMK RAE1605DZB1605 CIG 015V160 BKN V SCT SLP132 P0000 60034 T02860256 10286 20245 58003

Closest aviation forecast (TAF) to Aberdeen Field

Forecast is more than 6 hours old.

Closest forecast is Felker Army Air Field, 6.6 nm (12.2 km) N. Retrieved 2020/08/14 10:03 UTC (7 hours ago):

TAF KFAF 141000Z 1410/1516 VRB06KT 9999 BKN050 QNH2987INS BECMG 1412/1413 35006KT 8000 -SHRA SCT040 BKN050 QNH2992INS TEMPO 1416/1421 02010G15KT 4800 TSRA BKN030CB OVC080 BECMG 1501/1502 VRB06KT 9999 NSW SCT020 BKN035 QNH2990INS TX28/1419Z TN24/1410Z